Time;durP1;ratioP1;P1;durP2;ratioP2;P2;SDS_P1;SDS_P2;PMS_P1;PMS_P2;Temp;Humidity;BMP_temperature;BMP_pressure;BME280_temperature;BME280_humidity;BME280_pressure;Samples;Min_cycle;Max_cycle;Signal;HPM_P1;HPM_P2
2023/10/09 00:01:01;;;;;;;;;;;;;;;;;;5072456;28;881;-71
2023/10/09 00:03:27;;;;;;;;;;;;;;;;;;5072070;28;884;-71
2023/10/09 00:05:53;;;;;;;;;;;;;;;;;;5070706;28;1018;-70
2023/10/09 00:08:21;;;;;;;;;;;;;;;;;;5071883;28;845;-71
2023/10/09 00:10:53;;;;;;;;;;;;;;;;;;5072048;28;1981;-71
2023/10/09 00:13:30;;;;;;;;;;;;;;;;;;5070450;28;869;-71
2023/10/09 00:16:00;;;;;;;;;;;;;;;;;;5072838;28;935;-71
2023/10/09 00:18:29;;;;;;;;;;;;;;;;;;5071691;28;923;-71
2023/10/09 00:21:00;;;;;;;;;;;;;;;;;;5055303;28;1455;-71
2023/10/09 00:23:25;;;;;;;;;;;;;;;;;;5072161;28;892;-71
2023/10/09 00:26:12;;;;;;;;;;;;;;;;;;5072013;28;853;-71
2023/10/09 00:28:41;;;;;;;;;;;;;;;;;;5071959;28;840;-71
2023/10/09 00:31:07;;;;;;;;;;;;;;;;;;5071724;28;1898;-70
2023/10/09 00:33:34;;;;;;;;;;;;;;;;;;5071675;28;896;-70
2023/10/09 00:36:09;;;;;;;;;;;;;;;;;;5071602;28;876;-71
2023/10/09 00:38:34;;;;;;;;;;;;;;;;;;5071033;28;899;-71
2023/10/09 00:41:42;;;;;;;;;;;;;;;;;;5071089;28;969;-71
2023/10/09 00:43:52;;;;;;;;;;;;;;;;;;5064894;28;1397;-71
2023/10/09 00:48:47;;;;;;;;;;;;;;;;;;5072058;28;919;-71
2023/10/09 00:51:18;;;;;;;;;;;;;;;;;;5069893;28;1914;-71
2023/10/09 00:53:51;;;;;;;;;;;;;;;;;;5070813;28;849;-71
2023/10/09 00:56:37;;;;;;;;;;;;;;;;;;5071511;28;944;-71
2023/10/09 00:59:13;;;;;;;;;;;;;;;;;;5070159;28;1147;-71
2023/10/09 01:01:40;;;;;;;;;;;;;;;;;;5072303;28;891;-71
2023/10/09 01:04:06;;;;;;;;;;;;;;;;;;5070479;28;856;-71
2023/10/09 01:06:33;;;;;;;;;;;;;;;;;;5071558;28;1226;-68
2023/10/09 01:09:09;;;;;;;;;;;;;;;;;;5071859;28;1138;-71
2023/10/09 01:11:38;;;;;;;;;;;;;;;;;;5071875;28;1085;-69
2023/10/09 01:16:32;;;;;;;;;;;;;;;;;;5071578;28;816;-69
2023/10/09 01:18:57;;;;;;;;;;;;;;;;;;5072995;28;1195;-70
2023/10/09 01:21:31;;;;;;;;;;;;;;;;;;5075097;28;856;-70
2023/10/09 01:26:33;;;;;;;;;;;;;;;;;;5074757;28;879;-70
2023/10/09 01:29:00;;;;;;;;;;;;;;;;;;5074432;28;817;-69
2023/10/09 01:31:37;;;;;;;;;;;;;;;;;;5074888;28;1970;-70
2023/10/09 01:34:03;;;;;;;;;;;;;;;;;;5074891;28;880;-69
2023/10/09 01:36:32;;;;;;;;;;;;;;;;;;5074177;28;908;-70
2023/10/09 01:39:39;;;;;;;;;;;;;;;;;;5074790;28;931;-69
2023/10/09 01:41:58;;;;;;;;;;;;;;;;;;5072781;28;982;-70
2023/10/09 01:44:26;;;;;;;;;;;;;;;;;;5074381;28;931;-69
2023/10/09 01:46:54;;;;;;;;;;;;;;;;;;5074477;28;861;-69
2023/10/09 01:49:29;;;;;;;;;;;;;;;;;;5073233;28;1971;-69
2023/10/09 01:51:55;;;;;;;;;;;;;;;;;;5075122;28;916;-69
2023/10/09 01:54:42;;;;;;;;;;;;;;;;;;5073446;28;999;-69
2023/10/09 01:57:12;;;;;;;;;;;;;;;;;;5074007;28;1344;-70
2023/10/09 01:59:43;;;;;;;;;;;;;;;;;;5075013;28;865;-69
2023/10/09 02:02:33;;;;;;;;;;;;;;;;;;5073354;28;810;-70
2023/10/09 02:05:09;;;;;;;;;;;;;;;;;;5074142;28;1270;-70
2023/10/09 02:07:40;;;;;;;;;;;;;;;;;;5073071;28;1198;-70
2023/10/09 02:10:11;;;;;;;;;;;;;;;;;;5074196;28;1889;-70
2023/10/09 02:12:37;;;;;;;;;;;;;;;;;;5072830;28;998;-70
2023/10/09 02:15:15;;;;;;;;;;;;;;;;;;5073759;28;816;-70
2023/10/09 02:17:51;;;;;;;;;;;;;;;;;;5073543;28;915;-70
2023/10/09 02:20:28;;;;;;;;;;;;;;;;;;5073215;28;888;-70
2023/10/09 02:22:53;;;;;;;;;;;;;;;;;;5072661;28;1332;-70
2023/10/09 02:25:21;;;;;;;;;;;;;;;;;;5073153;28;1070;-70
2023/10/09 02:27:53;;;;;;;;;;;;;;;;;;5071978;28;861;-70
2023/10/09 02:30:26;;;;;;;;;;;;;;;;;;5072891;28;1965;-70
2023/10/09 02:32:52;;;;;;;;;;;;;;;;;;5074017;28;896;-70
2023/10/09 02:35:21;;;;;;;;;;;;;;;;;;5073000;28;868;-70
2023/10/09 02:37:47;;;;;;;;;;;;;;;;;;5073442;28;871;-70
2023/10/09 02:40:22;;;;;;;;;;;;;;;;;;5073027;28;840;-70
2023/10/09 02:42:49;;;;;;;;;;;;;;;;;;5072947;28;877;-70
2023/10/09 02:45:16;;;;;;;;;;;;;;;;;;5072994;28;817;-70
2023/10/09 02:47:42;;;;;;;;;;;;;;;;;;5072904;28;931;-70
2023/10/09 02:50:19;;;;;;;;;;;;;;;;;;5072680;28;1910;-70
2023/10/09 02:52:47;;;;;;;;;;;;;;;;;;5074471;28;1398;-70
2023/10/09 02:55:23;;;;;;;;;;;;;;;;;;5073617;28;904;-70
2023/10/09 02:57:51;;;;;;;;;;;;;;;;;;5074150;28;897;-70
2023/10/09 03:00:28;;;;;;;;;;;;;;;;;;5073371;28;896;-70
2023/10/09 03:02:54;;;;;;;;;;;;;;;;;;5074018;28;892;-70
2023/10/09 03:05:20;;;;;;;;;;;;;;;;;;5073681;28;896;-70
2023/10/09 03:07:46;;;;;;;;;;;;;;;;;;5073148;28;939;-70
2023/10/09 03:10:11;;;;;;;;;;;;;;;;;;5073467;28;1961;-70
2023/10/09 03:12:36;;;;;;;;;;;;;;;;;;5073802;28;766;-70
2023/10/09 03:15:05;;;;;;;;;;;;;;;;;;5073630;28;820;-71
2023/10/09 03:17:34;;;;;;;;;;;;;;;;;;5054835;28;868;-70
2023/10/09 03:20:01;;;;;;;;;;;;;;;;;;5057834;28;1242;-70
2023/10/09 03:22:27;;;;;;;;;;;;;;;;;;5051263;28;873;-70
2023/10/09 03:24:52;;;;;;;;;;;;;;;;;;5051683;28;904;-69
2023/10/09 03:27:18;;;;;;;;;;;;;;;;;;5052521;28;900;-70
2023/10/09 03:29:49;;;;;;;;;;;;;;;;;;5052855;28;1878;-70
2023/10/09 03:32:14;;;;;;;;;;;;;;;;;;5053438;28;897;-71
2023/10/09 03:34:40;;;;;;;;;;;;;;;;;;5053109;28;840;-71
2023/10/09 03:37:06;;;;;;;;;;;;;;;;;;5052923;28;988;-70
2023/10/09 03:39:38;;;;;;;;;;;;;;;;;;5052174;28;909;-71
2023/10/09 03:42:05;;;;;;;;;;;;;;;;;;5051682;28;888;-71
2023/10/09 03:44:35;;;;;;;;;;;;;;;;;;5050485;28;877;-70
2023/10/09 03:47:01;;;;;;;;;;;;;;;;;;5052469;28;872;-71
2023/10/09 03:49:27;;;;;;;;;;;;;;;;;;5051602;28;1966;-70
2023/10/09 03:51:52;;;;;;;;;;;;;;;;;;5052047;28;935;-70
2023/10/09 03:54:22;;;;;;;;;;;;;;;;;;5051456;28;996;-70
2023/10/09 03:56:50;;;;;;;;;;;;;;;;;;5051756;28;837;-70
2023/10/09 03:59:21;;;;;;;;;;;;;;;;;;5051581;28;892;-70
2023/10/09 04:01:52;;;;;;;;;;;;;;;;;;5051600;28;978;-70
2023/10/09 04:04:22;;;;;;;;;;;;;;;;;;5051364;28;888;-71
2023/10/09 04:06:47;;;;;;;;;;;;;;;;;;5051691;28;899;-70
2023/10/09 04:11:49;;;;;;;;;;;;;;;;;;5051291;28;729;-70
2023/10/09 04:14:32;;;;;;;;;;;;;;;;;;5049214;28;869;-71
2023/10/09 04:17:58;;;;;;;;;;;;;;;;;;5050849;28;954;-71
2023/10/09 04:22:49;;;;;;;;;;;;;;;;;;5051650;28;706;-70
2023/10/09 04:25:15;;;;;;;;;;;;;;;;;;5050827;28;921;-71
2023/10/09 04:27:40;;;;;;;;;;;;;;;;;;5051279;28;829;-70
2023/10/09 04:30:07;;;;;;;;;;;;;;;;;;5051550;28;1949;-70
2023/10/09 04:32:34;;;;;;;;;;;;;;;;;;5050685;28;1211;-70
2023/10/09 04:37:45;;;;;;;;;;;;;;;;;;5051178;28;640;-70
2023/10/09 04:40:40;;;;;;;;;;;;;;;;;;5051142;28;928;-70
2023/10/09 04:42:58;;;;;;;;;;;;;;;;;;5049958;28;957;-70
2023/10/09 04:48:07;;;;;;;;;;;;;;;;;;5051639;28;770;-71
2023/10/09 04:53:22;;;;;;;;;;;;;;;;;;5055246;28;828;-70
2023/10/09 04:55:54;;;;;;;;;;;;;;;;;;5057984;28;848;-70
2023/10/09 04:58:25;;;;;;;;;;;;;;;;;;5058019;28;845;-70
2023/10/09 05:03:26;;;;;;;;;;;;;;;;;;5058262;28;780;-70
2023/10/09 05:05:58;;;;;;;;;;;;;;;;;;5058817;28;1002;-70
2023/10/09 05:16:25;;;;;;;;;;;;;;;;;;5059349;28;900;-70
2023/10/09 05:18:59;;;;;;;;;;;;;;;;;;5059015;28;983;-70
2023/10/09 05:37:33;;;;;;;;;;;;;;;;;;5057501;28;821;-70
2023/10/09 06:03:48;;;;;;;;;;;;;;;;;;5076418;28;653;-70
2023/10/09 06:06:32;;;;;;;;;;;;;;;;;;5075498;28;987;-69
2023/10/09 06:11:38;;;;;;;;;;;;;;;;;;5074473;28;1977;-70
2023/10/09 06:14:04;;;;;;;;;;;;;;;;;;5074683;28;868;-69
2023/10/09 06:24:18;;;;;;;;;;;;;;;;;;5074372;28;750;-69
2023/10/09 06:29:37;;;;;;;;;;;;;;;;;;5073833;28;1961;-68
2023/10/09 06:34:51;;;;;;;;;;;;;;;;;;5074013;28;695;-69
2023/10/09 06:41:01;;;;;;;;;;;;;;;;;;5070609;28;1171;-69
2023/10/09 06:45:16;;;;;;;;;;;;;;;;;;5053359;28;832;-68
2023/10/09 06:47:42;;;;;;;;;;;;;;;;;;5053209;28;861;-69
2023/10/09 06:55:50;;;;;;;;;;;;;;;;;;5053562;28;639;-69
2023/10/09 06:58:22;;;;;;;;;;;;;;;;;;5051701;28;865;-68
2023/10/09 07:03:34;;;;;;;;;;;;;;;;;;5051804;28;874;-69
2023/10/09 07:06:09;;;;;;;;;;;;;;;;;;5050847;28;1168;-68
2023/10/09 07:08:38;;;;;;;;;;;;;;;;;;5050992;28;927;-69
2023/10/09 07:11:56;;;;;;;;;;;;;;;;;;5052897;28;1989;-69
2023/10/09 07:14:08;;;;;;;;;;;;;;;;;;5052000;28;1662;-69
2023/10/09 07:16:39;;;;;;;;;;;;;;;;;;5052115;28;872;-69
2023/10/09 07:19:35;;;;;;;;;;;;;;;;;;5053619;28;931;-69
2023/10/09 07:22:02;;;;;;;;;;;;;;;;;;5053347;28;1481;-69
2023/10/09 07:24:37;;;;;;;;;;;;;;;;;;5053071;28;914;-68
2023/10/09 07:27:08;;;;;;;;;;;;;;;;;;5053509;28;904;-69
2023/10/09 07:29:47;;;;;;;;;;;;;;;;;;5052761;28;1906;-69
2023/10/09 07:32:19;;;;;;;;;;;;;;;;;;5053444;28;979;-68
2023/10/09 07:34:54;;;;;;;;;;;;;;;;;;5053666;28;880;-69
2023/10/09 07:37:19;;;;;;;;;;;;;;;;;;5052700;28;928;-69
2023/10/09 07:39:49;;;;;;;;;;;;;;;;;;5053113;28;904;-69
2023/10/09 07:42:19;;;;;;;;;;;;;;;;;;5051856;28;1199;-69
2023/10/09 07:44:52;;;;;;;;;;;;;;;;;;5053106;28;879;-69
2023/10/09 07:47:22;;;;;;;;;;;;;;;;;;5053229;28;851;-69
2023/10/09 07:49:54;;;;;;;;;;;;;;;;;;5053288;28;1910;-69
2023/10/09 07:52:21;;;;;;;;;;;;;;;;;;5052775;28;852;-69
2023/10/09 07:54:49;;;;;;;;;;;;;;;;;;5052879;28;928;-69
2023/10/09 07:57:16;;;;;;;;;;;;;;;;;;5051481;28;1203;-69
2023/10/09 07:59:54;;;;;;;;;;;;;;;;;;5058503;28;1203;-70
2023/10/09 08:02:31;;;;;;;;;;;;;;;;;;5050945;28;1164;-69
2023/10/09 08:05:03;;;;;;;;;;;;;;;;;;5035786;28;1400;-69
2023/10/09 08:07:34;;;;;;;;;;;;;;;;;;5051767;28;931;-69
2023/10/09 08:17:53;;;;;;;;;;;;;;;;;;5051723;28;948;-69
2023/10/09 08:20:24;;;;;;;;;;;;;;;;;;5051015;28;868;-70
2023/10/09 08:22:52;;;;;;;;;;;;;;;;;;5051467;28;850;-69
2023/10/09 08:25:26;;;;;;;;;;;;;;;;;;5051470;28;840;-70
2023/10/09 08:35:55;;;;;;;;;;;;;;;;;;5051696;28;773;-69
2023/10/09 08:38:24;;;;;;;;;;;;;;;;;;5050689;28;1228;-69
2023/10/09 08:40:50;;;;;;;;;;;;;;;;;;5051642;28;853;-69
2023/10/09 08:43:16;;;;;;;;;;;;;;;;;;5051161;28;892;-69
2023/10/09 08:45:47;;;;;;;;;;;;;;;;;;5049551;28;1227;-70
2023/10/09 08:48:15;;;;;;;;;;;;;;;;;;5051572;28;864;-70
2023/10/09 08:50:42;;;;;;;;;;;;;;;;;;5050282;28;1981;-69
2023/10/09 08:53:07;;;;;;;;;;;;;;;;;;5050923;28;821;-69
2023/10/09 08:55:32;;;;;;;;;;;;;;;;;;5049922;28;1019;-69
2023/10/09 08:57:58;;;;;;;;;;;;;;;;;;5051379;28;1050;-70
2023/10/09 09:00:24;;;;;;;;;;;;;;;;;;5050815;28;901;-69
2023/10/09 09:02:53;;;;;;;;;;;;;;;;;;5052476;28;948;-70
2023/10/09 09:05:18;;;;;;;;;;;;;;;;;;5051361;28;1025;-70
2023/10/09 09:07:44;;;;;;;;;;;;;;;;;;5052247;28;1003;-68
2023/10/09 09:10:20;;;;;;;;;;;;;;;;;;5052280;28;1914;-70
2023/10/09 09:12:46;;;;;;;;;;;;;;;;;;5052164;28;817;-70
2023/10/09 09:15:19;;;;;;;;;;;;;;;;;;5052106;28;855;-70
2023/10/09 09:17:45;;;;;;;;;;;;;;;;;;5052892;28;856;-70
2023/10/09 09:20:24;;;;;;;;;;;;;;;;;;5052920;28;889;-70
2023/10/09 09:22:56;;;;;;;;;;;;;;;;;;5052672;28;1099;-70
2023/10/09 09:25:24;;;;;;;;;;;;;;;;;;5051968;28;903;-70
2023/10/09 09:27:52;;;;;;;;;;;;;;;;;;5050752;28;1716;-70
2023/10/09 09:30:33;;;;;;;;;;;;;;;;;;5051733;28;1945;-70
2023/10/09 09:33:16;;;;;;;;;;;;;;;;;;5051216;28;1360;-70
2023/10/09 09:36:02;;;;;;;;;;;;;;;;;;5051527;28;939;-68
2023/10/09 09:38:28;;;;;;;;;;;;;;;;;;5050761;28;915;-70
2023/10/09 09:40:57;;;;;;;;;;;;;;;;;;5054480;28;829;-69
2023/10/09 09:43:25;;;;;;;;;;;;;;;;;;5053552;28;1524;-71
2023/10/09 09:45:53;;;;;;;;;;;;;;;;;;5054730;28;884;-70
2023/10/09 09:48:18;;;;;;;;;;;;;;;;;;5054484;28;821;-70
2023/10/09 09:50:44;;;;;;;;;;;;;;;;;;5054426;28;1971;-70
2023/10/09 09:53:16;;;;;;;;;;;;;;;;;;5053136;28;868;-70
2023/10/09 09:55:55;;;;;;;;;;;;;;;;;;5053898;28;848;-70
2023/10/09 09:58:23;;;;;;;;;;;;;;;;;;5054720;28;825;-70
2023/10/09 10:00:53;;;;;;;;;;;;;;;;;;5054287;28;1028;-70
2023/10/09 10:03:27;;;;;;;;;;;;;;;;;;5053803;28;937;-69
2023/10/09 10:05:56;;;;;;;;;;;;;;;;;;5036254;28;1418;-70
2023/10/09 10:08:30;;;;;;;;;;;;;;;;;;5052640;28;1393;-70
2023/10/09 10:10:58;;;;;;;;;;;;;;;;;;5054426;28;1953;-68
2023/10/09 10:13:41;;;;;;;;;;;;;;;;;;5053494;28;907;-70
2023/10/09 10:16:19;;;;;;;;;;;;;;;;;;5054003;28;936;-69
2023/10/09 10:18:59;;;;;;;;;;;;;;;;;;5053972;28;825;-68
2023/10/09 10:24:02;;;;;;;;;;;;;;;;;;5054367;28;801;-69
2023/10/09 10:26:33;;;;;;;;;;;;;;;;;;5053203;28;911;-69
2023/10/09 10:29:23;;;;;;;;;;;;;;;;;;5052135;28;773;-70
2023/10/09 10:31:56;;;;;;;;;;;;;;;;;;5052047;28;1969;-70
2023/10/09 10:34:23;;;;;;;;;;;;;;;;;;5052206;28;837;-68
2023/10/09 10:36:52;;;;;;;;;;;;;;;;;;5050840;28;829;-70
2023/10/09 10:39:42;;;;;;;;;;;;;;;;;;5051509;28;860;-70
2023/10/09 10:42:09;;;;;;;;;;;;;;;;;;5051904;28;896;-70
2023/10/09 10:44:36;;;;;;;;;;;;;;;;;;5053365;28;919;-70
2023/10/09 10:47:01;;;;;;;;;;;;;;;;;;5053699;28;900;-70
2023/10/09 10:49:36;;;;;;;;;;;;;;;;;;5052790;28;1179;-71
2023/10/09 10:52:14;;;;;;;;;;;;;;;;;;5053995;28;856;-70
2023/10/09 10:57:19;;;;;;;;;;;;;;;;;;5053222;28;697;-70
2023/10/09 10:59:44;;;;;;;;;;;;;;;;;;5052391;28;865;-70
2023/10/09 11:12:42;;;;;;;;;;;;;;;;;;5048165;28;1112;-70
2023/10/09 11:15:29;;;;;;;;;;;;;;;;;;5051865;28;1220;-70
2023/10/09 11:18:48;;;;;;;;;;;;;;;;;;5054250;28;1669;-68
2023/10/09 11:21:23;;;;;;;;;;;;;;;;;;5050605;28;2030;-69
2023/10/09 11:26:25;;;;;;;;;;;;;;;;;;5053031;28;719;-70
2023/10/09 11:32:00;;;;;;;;;;;;;;;;;;5054349;28;1892;-70
2023/10/09 11:34:29;;;;;;;;;;;;;;;;;;5058469;28;1155;-70
2023/10/09 11:39:55;;;;;;;;;;;;;;;;;;5053998;28;836;-70
2023/10/09 11:45:24;;;;;;;;;;;;;;;;;;5053601;28;761;-70
2023/10/09 11:48:00;;;;;;;;;;;;;;;;;;5052136;28;868;-69
2023/10/09 11:50:53;;;;;;;;;;;;;;;;;;5051535;28;2137;-69
2023/10/09 11:55:50;;;;;;;;;;;;;;;;;;5052415;28;813;-69
2023/10/09 11:58:22;;;;;;;;;;;;;;;;;;5052066;28;939;-70
2023/10/09 12:00:59;;;;;;;;;;;;;;;;;;5051277;28;884;-69
2023/10/09 12:03:28;;;;;;;;;;;;;;;;;;5051815;28;908;-70
2023/10/09 12:05:56;;;;;;;;;;;;;;;;;;5051073;28;911;-69
2023/10/09 12:08:22;;;;;;;;;;;;;;;;;;5050631;28;1357;-70
2023/10/09 12:10:48;;;;;;;;;;;;;;;;;;5051607;28;1955;-69
2023/10/09 12:13:15;;;;;;;;;;;;;;;;;;5052437;28;809;-70
2023/10/09 12:15:41;;;;;;;;;;;;;;;;;;5051641;28;679;-70
2023/10/09 12:18:14;;;;;;;;;;;;;;;;;;5052430;28;837;-69
2023/10/09 12:20:39;;;;;;;;;;;;;;;;;;5051821;28;865;-70
2023/10/09 12:23:05;;;;;;;;;;;;;;;;;;5052060;28;857;-70
2023/10/09 12:25:31;;;;;;;;;;;;;;;;;;5051017;28;873;-70
2023/10/09 12:28:01;;;;;;;;;;;;;;;;;;5052555;28;888;-69
2023/10/09 12:30:28;;;;;;;;;;;;;;;;;;5052509;28;1941;-70
2023/10/09 12:32:54;;;;;;;;;;;;;;;;;;5050669;28;864;-70
2023/10/09 12:35:20;;;;;;;;;;;;;;;;;;5052066;28;817;-70
2023/10/09 12:37:46;;;;;;;;;;;;;;;;;;5052124;28;848;-70
2023/10/09 12:40:11;;;;;;;;;;;;;;;;;;5051078;28;1207;-70
2023/10/09 12:42:36;;;;;;;;;;;;;;;;;;5052001;28;911;-69
2023/10/09 12:45:08;;;;;;;;;;;;;;;;;;5050938;28;1211;-70
2023/10/09 12:47:33;;;;;;;;;;;;;;;;;;5051579;28;938;-70
2023/10/09 12:49:58;;;;;;;;;;;;;;;;;;5051021;28;1976;-69
2023/10/09 12:52:29;;;;;;;;;;;;;;;;;;5052143;28;829;-70
2023/10/09 12:54:54;;;;;;;;;;;;;;;;;;5052160;28;845;-69
2023/10/09 12:57:20;;;;;;;;;;;;;;;;;;5052027;28;1070;-69
2023/10/09 12:59:48;;;;;;;;;;;;;;;;;;5050172;28;862;-69
2023/10/09 13:02:27;;;;;;;;;;;;;;;;;;5051873;28;971;-68
2023/10/09 13:04:53;;;;;;;;;;;;;;;;;;5051494;28;947;-68
2023/10/09 13:07:21;;;;;;;;;;;;;;;;;;5051320;28;919;-69
2023/10/09 13:10:08;;;;;;;;;;;;;;;;;;5051024;28;1910;-69
2023/10/09 13:12:32;;;;;;;;;;;;;;;;;;5050484;28;1829;-68
2023/10/09 13:14:57;;;;;;;;;;;;;;;;;;5054938;28;1234;-69
2023/10/09 13:17:26;;;;;;;;;;;;;;;;;;5068114;28;1219;-69
2023/10/09 13:19:52;;;;;;;;;;;;;;;;;;5068248;28;1149;-69
2023/10/09 13:22:17;;;;;;;;;;;;;;;;;;5071102;28;1216;-69
2023/10/09 13:24:43;;;;;;;;;;;;;;;;;;5074048;28;1202;-68
2023/10/09 13:27:09;;;;;;;;;;;;;;;;;;5064220;28;1235;-68
2023/10/09 13:29:39;;;;;;;;;;;;;;;;;;5061989;28;1227;-69
2023/10/09 13:32:13;;;;;;;;;;;;;;;;;;5075947;28;872;-69
2023/10/09 13:34:44;;;;;;;;;;;;;;;;;;5075373;28;903;-69
2023/10/09 13:37:13;;;;;;;;;;;;;;;;;;5075607;28;896;-69
2023/10/09 13:39:40;;;;;;;;;;;;;;;;;;5074661;28;1231;-69
2023/10/09 13:42:07;;;;;;;;;;;;;;;;;;5075859;28;800;-69
2023/10/09 13:44:33;;;;;;;;;;;;;;;;;;5074626;28;868;-69
2023/10/09 13:47:04;;;;;;;;;;;;;;;;;;5075059;28;845;-69
2023/10/09 13:49:30;;;;;;;;;;;;;;;;;;5074722;28;1108;-68
2023/10/09 13:51:56;;;;;;;;;;;;;;;;;;5074800;28;1909;-67
2023/10/09 13:54:28;;;;;;;;;;;;;;;;;;5072048;28;1297;-68
2023/10/09 13:56:54;;;;;;;;;;;;;;;;;;5072146;28;1100;-68
2023/10/09 13:59:20;;;;;;;;;;;;;;;;;;5074536;28;908;-67
2023/10/09 14:01:47;;;;;;;;;;;;;;;;;;5068940;28;1183;-69
2023/10/09 14:04:18;;;;;;;;;;;;;;;;;;5051901;28;1148;-69
2023/10/09 14:06:44;;;;;;;;;;;;;;;;;;5053269;28;1640;-68
2023/10/09 14:09:10;;;;;;;;;;;;;;;;;;5059854;28;1231;-69
2023/10/09 14:11:37;;;;;;;;;;;;;;;;;;5075477;28;1906;-73
2023/10/09 14:14:03;;;;;;;;;;;;;;;;;;5074599;28;1686;-73
2023/10/09 14:16:29;;;;;;;;;;;;;;;;;;5076704;28;852;-72
2023/10/09 14:18:56;;;;;;;;;;;;;;;;;;5074085;28;1206;-72
2023/10/09 14:21:25;;;;;;;;;;;;;;;;;;5073331;28;1320;-72
2023/10/09 14:23:50;;;;;;;;;;;;;;;;;;5073744;28;892;-71
2023/10/09 14:26:18;;;;;;;;;;;;;;;;;;5074091;28;864;-71
2023/10/09 14:28:43;;;;;;;;;;;;;;;;;;5074398;28;880;-73
2023/10/09 14:31:12;;;;;;;;;;;;;;;;;;5074717;28;1951;-73
2023/10/09 14:33:37;;;;;;;;;;;;;;;;;;5072344;28;877;-73
2023/10/09 14:36:05;;;;;;;;;;;;;;;;;;5074988;28;860;-73
2023/10/09 14:38:32;;;;;;;;;;;;;;;;;;5073911;28;834;-73
2023/10/09 14:40:59;;;;;;;;;;;;;;;;;;5076025;28;869;-72
2023/10/09 14:43:28;;;;;;;;;;;;;;;;;;5074802;28;1325;-70
2023/10/09 14:45:53;;;;;;;;;;;;;;;;;;5074711;28;860;-72
2023/10/09 14:48:19;;;;;;;;;;;;;;;;;;5074942;28;928;-71
2023/10/09 14:50:53;;;;;;;;;;;;;;;;;;5074187;28;1906;-71
2023/10/09 14:53:19;;;;;;;;;;;;;;;;;;5075051;28;959;-72
2023/10/09 14:55:45;;;;;;;;;;;;;;;;;;5074575;28;829;-71
2023/10/09 14:58:11;;;;;;;;;;;;;;;;;;5075083;28;845;-71
2023/10/09 15:00:36;;;;;;;;;;;;;;;;;;5074492;28;847;-72
2023/10/09 15:03:03;;;;;;;;;;;;;;;;;;5074415;28;911;-74
2023/10/09 15:05:31;;;;;;;;;;;;;;;;;;5075173;28;892;-70
2023/10/09 15:07:56;;;;;;;;;;;;;;;;;;5074282;28;958;-70
2023/10/09 15:10:24;;;;;;;;;;;;;;;;;;5074234;28;1961;-71
2023/10/09 15:12:49;;;;;;;;;;;;;;;;;;5074834;28;836;-69
2023/10/09 15:15:15;;;;;;;;;;;;;;;;;;5075825;28;837;-69
2023/10/09 15:17:43;;;;;;;;;;;;;;;;;;5074735;28;868;-70
2023/10/09 15:20:13;;;;;;;;;;;;;;;;;;5075244;28;855;-69
2023/10/09 15:22:38;;;;;;;;;;;;;;;;;;5074973;28;915;-69
2023/10/09 15:25:05;;;;;;;;;;;;;;;;;;5072776;28;966;-69
2023/10/09 15:27:30;;;;;;;;;;;;;;;;;;5071443;28;801;-69
2023/10/09 15:29:56;;;;;;;;;;;;;;;;;;5072486;28;1890;-68
2023/10/09 15:32:23;;;;;;;;;;;;;;;;;;5072775;28;868;-69
2023/10/09 15:34:48;;;;;;;;;;;;;;;;;;5070470;28;1206;-69
2023/10/09 15:37:13;;;;;;;;;;;;;;;;;;5071421;28;1019;-70
2023/10/09 15:39:39;;;;;;;;;;;;;;;;;;5071882;28;1003;-70
2023/10/09 15:42:06;;;;;;;;;;;;;;;;;;5071163;28;1265;-69
2023/10/09 15:44:33;;;;;;;;;;;;;;;;;;5072378;28;812;-69
2023/10/09 15:46:59;;;;;;;;;;;;;;;;;;5071838;28;876;-69
2023/10/09 15:49:27;;;;;;;;;;;;;;;;;;5071800;28;1144;-69
2023/10/09 15:51:53;;;;;;;;;;;;;;;;;;5071812;28;1981;-70
2023/10/09 15:54:19;;;;;;;;;;;;;;;;;;5072452;28;829;-70
2023/10/09 15:56:45;;;;;;;;;;;;;;;;;;5071721;28;898;-69
2023/10/09 15:59:11;;;;;;;;;;;;;;;;;;5072586;28;837;-69
2023/10/09 16:01:40;;;;;;;;;;;;;;;;;;5070603;28;1248;-70
2023/10/09 16:04:10;;;;;;;;;;;;;;;;;;5071979;28;872;-70
2023/10/09 16:06:39;;;;;;;;;;;;;;;;;;5071164;28;992;-70
2023/10/09 16:09:05;;;;;;;;;;;;;;;;;;5070841;28;828;-70
2023/10/09 16:11:33;;;;;;;;;;;;;;;;;;5071735;28;1947;-70
2023/10/09 16:13:59;;;;;;;;;;;;;;;;;;5070760;28;841;-69
2023/10/09 16:16:28;;;;;;;;;;;;;;;;;;5071622;28;837;-69
2023/10/09 16:18:55;;;;;;;;;;;;;;;;;;5071145;28;999;-69
2023/10/09 16:21:21;;;;;;;;;;;;;;;;;;5072787;28;841;-70
2023/10/09 16:23:49;;;;;;;;;;;;;;;;;;5072193;28;881;-70
2023/10/09 16:26:16;;;;;;;;;;;;;;;;;;5072256;28;828;-69
2023/10/09 16:28:42;;;;;;;;;;;;;;;;;;5071506;28;977;-69
2023/10/09 16:31:13;;;;;;;;;;;;;;;;;;5071695;28;1918;-70
2023/10/09 16:33:39;;;;;;;;;;;;;;;;;;5069664;28;829;-70
2023/10/09 16:36:04;;;;;;;;;;;;;;;;;;5071599;28;953;-70
2023/10/09 16:38:29;;;;;;;;;;;;;;;;;;5071538;28;895;-70
2023/10/09 16:40:55;;;;;;;;;;;;;;;;;;5071397;28;852;-69
2023/10/09 16:43:27;;;;;;;;;;;;;;;;;;5071879;28;917;-70
2023/10/09 16:45:58;;;;;;;;;;;;;;;;;;5071794;28;892;-69
2023/10/09 16:48:30;;;;;;;;;;;;;;;;;;5071889;28;836;-70
2023/10/09 16:50:56;;;;;;;;;;;;;;;;;;5071264;28;2011;-70
2023/10/09 16:53:22;;;;;;;;;;;;;;;;;;5071740;28;829;-69
2023/10/09 16:55:48;;;;;;;;;;;;;;;;;;5070764;28;903;-69
2023/10/09 16:58:15;;;;;;;;;;;;;;;;;;5072300;28;902;-70
2023/10/09 17:00:40;;;;;;;;;;;;;;;;;;5070689;28;889;-70
2023/10/09 17:03:08;;;;;;;;;;;;;;;;;;5071411;28;982;-70
2023/10/09 17:05:36;;;;;;;;;;;;;;;;;;5070402;28;978;-69
2023/10/09 17:08:09;;;;;;;;;;;;;;;;;;5072441;28;948;-70
2023/10/09 17:10:36;;;;;;;;;;;;;;;;;;5072289;28;1918;-70
2023/10/09 17:13:03;;;;;;;;;;;;;;;;;;5070765;28;1064;-70
2023/10/09 17:15:33;;;;;;;;;;;;;;;;;;5071913;28;829;-70
2023/10/09 17:18:00;;;;;;;;;;;;;;;;;;5070913;28;1010;-70
2023/10/09 17:20:27;;;;;;;;;;;;;;;;;;5070002;28;1361;-70
2023/10/09 17:22:52;;;;;;;;;;;;;;;;;;5070895;28;875;-69
2023/10/09 17:25:17;;;;;;;;;;;;;;;;;;5071582;28;912;-69
2023/10/09 17:27:43;;;;;;;;;;;;;;;;;;5070782;28;849;-70
2023/10/09 17:30:09;;;;;;;;;;;;;;;;;;5071370;28;1905;-70
2023/10/09 17:32:35;;;;;;;;;;;;;;;;;;5070535;28;1212;-70
2023/10/09 17:35:08;;;;;;;;;;;;;;;;;;5071796;28;883;-70
2023/10/09 17:37:34;;;;;;;;;;;;;;;;;;5073160;28;864;-71
2023/10/09 17:39:59;;;;;;;;;;;;;;;;;;5072287;28;833;-70
2023/10/09 17:42:24;;;;;;;;;;;;;;;;;;5072597;28;999;-70
2023/10/09 17:44:50;;;;;;;;;;;;;;;;;;5071949;28;920;-70
2023/10/09 17:47:15;;;;;;;;;;;;;;;;;;5072589;28;817;-70
2023/10/09 17:49:40;;;;;;;;;;;;;;;;;;5071235;28;1330;-70
2023/10/09 17:52:11;;;;;;;;;;;;;;;;;;5071729;28;1905;-70
2023/10/09 17:54:36;;;;;;;;;;;;;;;;;;5071512;28;828;-70
2023/10/09 17:57:02;;;;;;;;;;;;;;;;;;5071282;28;844;-70
2023/10/09 17:59:27;;;;;;;;;;;;;;;;;;5071536;28;1126;-70
2023/10/09 18:01:53;;;;;;;;;;;;;;;;;;5074840;28;928;-70
2023/10/09 18:04:18;;;;;;;;;;;;;;;;;;5075227;28;884;-70
2023/10/09 18:06:43;;;;;;;;;;;;;;;;;;5072862;28;1534;-70
2023/10/09 18:09:15;;;;;;;;;;;;;;;;;;5074288;28;874;-70
2023/10/09 18:11:44;;;;;;;;;;;;;;;;;;5073700;28;1963;-71
2023/10/09 18:14:09;;;;;;;;;;;;;;;;;;5074672;28;939;-70
2023/10/09 18:16:37;;;;;;;;;;;;;;;;;;5074058;28;840;-70
2023/10/09 18:19:04;;;;;;;;;;;;;;;;;;5073817;28;892;-70
2023/10/09 18:21:29;;;;;;;;;;;;;;;;;;5074207;28;849;-70
2023/10/09 18:23:58;;;;;;;;;;;;;;;;;;5074112;28;939;-70
2023/10/09 18:26:25;;;;;;;;;;;;;;;;;;5074562;28;923;-71
2023/10/09 18:28:51;;;;;;;;;;;;;;;;;;5073918;28;864;-69
2023/10/09 18:31:16;;;;;;;;;;;;;;;;;;5074089;28;1902;-72
2023/10/09 18:33:45;;;;;;;;;;;;;;;;;;5074052;28;900;-71
2023/10/09 18:36:11;;;;;;;;;;;;;;;;;;5073832;28;1066;-72
2023/10/09 18:38:38;;;;;;;;;;;;;;;;;;5074129;28;919;-72
2023/10/09 18:41:06;;;;;;;;;;;;;;;;;;5073642;28;1154;-72
2023/10/09 18:43:32;;;;;;;;;;;;;;;;;;5073986;28;1067;-72
2023/10/09 18:45:57;;;;;;;;;;;;;;;;;;5071728;28;1558;-72
2023/10/09 18:48:27;;;;;;;;;;;;;;;;;;5073537;28;884;-73
2023/10/09 18:50:53;;;;;;;;;;;;;;;;;;5072288;28;1968;-73
2023/10/09 18:53:19;;;;;;;;;;;;;;;;;;5073225;28;924;-73
2023/10/09 18:55:45;;;;;;;;;;;;;;;;;;5074349;28;998;-73
2023/10/09 18:58:12;;;;;;;;;;;;;;;;;;5073764;28;1315;-74
2023/10/09 19:00:41;;;;;;;;;;;;;;;;;;5074449;28;640;-73
2023/10/09 19:03:14;;;;;;;;;;;;;;;;;;5074226;28;1240;-72
2023/10/09 19:05:44;;;;;;;;;;;;;;;;;;5074794;28;1013;-72
2023/10/09 19:08:09;;;;;;;;;;;;;;;;;;5069036;28;1226;-74
2023/10/09 19:10:37;;;;;;;;;;;;;;;;;;5064737;28;1973;-75
2023/10/09 19:13:06;;;;;;;;;;;;;;;;;;5056752;28;1152;-75
2023/10/09 19:15:32;;;;;;;;;;;;;;;;;;5054343;28;1357;-75
2023/10/09 19:17:58;;;;;;;;;;;;;;;;;;5074543;28;857;-75
2023/10/09 19:20:23;;;;;;;;;;;;;;;;;;5073902;28;1368;-75
2023/10/09 19:22:49;;;;;;;;;;;;;;;;;;5074851;28;904;-73
2023/10/09 19:25:16;;;;;;;;;;;;;;;;;;5074714;28;1078;-73
2023/10/09 19:27:48;;;;;;;;;;;;;;;;;;5072890;28;856;-72
2023/10/09 19:30:16;;;;;;;;;;;;;;;;;;5073552;28;1957;-72
2023/10/09 19:32:42;;;;;;;;;;;;;;;;;;5073053;28;872;-72
2023/10/09 19:35:07;;;;;;;;;;;;;;;;;;5073580;28;1018;-72
2023/10/09 19:37:32;;;;;;;;;;;;;;;;;;5067746;28;1151;-71
2023/10/09 19:39:58;;;;;;;;;;;;;;;;;;5066908;28;1180;-72
2023/10/09 19:42:23;;;;;;;;;;;;;;;;;;5073610;28;821;-72
2023/10/09 19:44:48;;;;;;;;;;;;;;;;;;5069630;28;1155;-72
2023/10/09 19:47:13;;;;;;;;;;;;;;;;;;5061159;28;1172;-72
2023/10/09 19:49:39;;;;;;;;;;;;;;;;;;5057920;28;1253;-73
2023/10/09 19:52:05;;;;;;;;;;;;;;;;;;5053282;28;1979;-72
2023/10/09 19:54:31;;;;;;;;;;;;;;;;;;5063411;28;1219;-71
2023/10/09 19:56:57;;;;;;;;;;;;;;;;;;5053806;28;915;-72